createdAt,value
2022-11-09T00:01:30.120Z,97452.41
2022-11-09T00:04:02.157Z,97441.28
2022-11-09T00:06:31.963Z,97445.88
2022-11-09T00:09:07.079Z,97435.75
2022-11-09T00:11:36.721Z,97438.53
2022-11-09T00:14:05.591Z,97436.84
2022-11-09T00:16:34.075Z,97443.25
2022-11-09T00:19:03.775Z,97444.25
2022-11-09T00:21:32.003Z,97447.84
2022-11-09T00:24:00.228Z,97441.88
2022-11-09T00:26:28.776Z,97439.53
2022-11-09T00:28:57.214Z,97438.69
2022-11-09T00:31:26.281Z,97447.75
2022-11-09T00:33:56.480Z,97442.59
2022-11-09T00:36:28.903Z,97444.66
2022-11-09T00:38:59.642Z,97448.31
2022-11-09T00:41:28.812Z,97440.50
2022-11-09T00:43:57.363Z,97449.41
2022-11-09T00:46:26.034Z,97436.34
2022-11-09T00:48:56.948Z,97437.44
2022-11-09T00:51:26.802Z,97440.34
2022-11-09T00:53:57.430Z,97445.63
2022-11-09T00:56:25.863Z,97452.88
2022-11-09T00:58:56.055Z,97457.31
2022-11-09T01:01:24.631Z,97459.25
2022-11-09T01:03:53.028Z,97463.88
2022-11-09T01:06:24.287Z,97456.09
2022-11-09T01:08:54.370Z,97462.47
2022-11-09T01:11:24.273Z,97473.16
2022-11-09T01:13:52.667Z,97466.38
2022-11-09T01:16:24.384Z,97468.31
2022-11-09T01:18:55.141Z,97474.72
2022-11-09T01:21:23.628Z,97463.72
2022-11-09T01:23:53.289Z,97461.06
2022-11-09T01:26:22.235Z,97467.47
2022-11-09T01:28:50.501Z,97466.78
2022-11-09T01:31:22.098Z,97454.69
2022-11-09T01:33:50.537Z,97457.47
2022-11-09T01:36:22.175Z,97461.91
2022-11-09T01:38:51.138Z,97470.94
2022-11-09T01:41:24.542Z,97463.31
2022-11-09T01:44:09.195Z,97459.13
2022-11-09T01:46:43.764Z,97466.34
2022-11-09T01:49:22.265Z,97463.03
2022-11-09T01:51:55.775Z,97468.47
2022-11-09T01:54:30.253Z,97458.84
2022-11-09T01:57:06.397Z,97445.91
2022-11-09T01:59:44.510Z,97429.66
2022-11-09T02:02:12.989Z,97424.53
2022-11-09T02:04:46.140Z,97420.47
2022-11-09T02:07:14.602Z,97423.25
2022-11-09T02:09:48.787Z,97421.59
2022-11-09T02:12:20.495Z,97425.22
2022-11-09T02:14:52.231Z,97427.16
2022-11-09T02:17:21.210Z,97440.34
2022-11-09T02:19:49.778Z,97432.44
2022-11-09T02:22:19.458Z,97420.22
2022-11-09T02:24:47.762Z,97422.72
2022-11-09T02:27:16.017Z,97426.31
2022-11-09T02:29:46.922Z,97425.06
2022-11-09T02:32:21.573Z,97419.78
2022-11-09T02:34:49.891Z,97417.97
2022-11-09T02:37:30.812Z,97424.09
2022-11-09T02:40:02.076Z,97418.69
2022-11-09T02:42:30.852Z,97421.88
2022-11-09T02:45:01.048Z,97420.06
2022-11-09T02:47:29.401Z,97422.56
2022-11-09T02:49:58.505Z,97420.63
2022-11-09T02:52:28.134Z,97419.66
2022-11-09T02:54:56.456Z,97417.84
2022-11-09T02:57:24.734Z,97423.00
2022-11-09T02:59:52.981Z,97424.50
2022-11-09T03:02:21.241Z,97419.94
2022-11-09T03:04:49.520Z,97427.03
2022-11-09T03:07:17.810Z,97433.13
2022-11-09T03:09:47.502Z,97437.44
2022-11-09T03:12:30.676Z,97443.72
2022-11-09T03:14:59.926Z,97450.78
2022-11-09T03:17:29.125Z,97443.97
2022-11-09T03:19:57.585Z,97444.81
2022-11-09T03:22:25.902Z,97454.53
2022-11-09T03:24:55.597Z,97444.13
2022-11-09T03:27:23.892Z,97439.81
2022-11-09T03:29:52.169Z,97443.56
2022-11-09T03:32:20.437Z,97445.50
2022-11-09T03:34:49.209Z,97450.09
2022-11-09T03:37:17.513Z,97449.50
2022-11-09T03:39:45.814Z,97447.00
2022-11-09T03:42:15.403Z,97443.69
2022-11-09T03:44:43.620Z,97454.25
2022-11-09T03:47:11.887Z,97446.34
2022-11-09T03:49:40.134Z,97444.78
2022-11-09T03:52:08.373Z,97442.00
2022-11-09T03:54:36.602Z,97441.31
2022-11-09T03:57:05.064Z,97448.53
2022-11-09T03:59:34.658Z,97450.34
2022-11-09T04:02:02.955Z,97445.19
2022-11-09T04:04:31.299Z,97446.88
2022-11-09T04:06:59.549Z,97437.13
2022-11-09T04:09:27.841Z,97445.06
2022-11-09T04:11:56.120Z,97452.84
2022-11-09T04:14:24.398Z,97452.03
2022-11-09T04:16:53.948Z,97457.16
2022-11-09T04:19:22.945Z,97458.13
2022-11-09T04:21:51.710Z,97460.47
2022-11-09T04:24:19.950Z,97466.75
2022-11-09T04:26:48.765Z,97458.81
2022-11-09T04:29:17.063Z,97463.25
2022-11-09T04:31:45.378Z,97464.94
2022-11-09T04:34:15.023Z,97464.25
2022-11-09T04:36:43.351Z,97458.97
2022-11-09T04:39:11.608Z,97458.25
2022-11-09T04:41:39.951Z,97449.53
2022-11-09T04:44:08.348Z,97453.09
2022-11-09T04:46:36.615Z,97450.59
2022-11-09T04:49:05.161Z,97449.66
2022-11-09T04:51:34.767Z,97454.81
2022-11-09T04:54:03.042Z,97447.03
2022-11-09T04:56:31.373Z,97452.16
2022-11-09T04:58:59.574Z,97442.41
2022-11-09T05:01:27.843Z,97447.81
2022-11-09T05:03:56.118Z,97456.88
2022-11-09T05:06:33.593Z,97458.78
2022-11-09T05:09:06.366Z,97455.47
2022-11-09T05:11:35.800Z,97454.78
2022-11-09T05:14:04.797Z,97458.78
2022-11-09T05:16:33.764Z,97464.22
2022-11-09T05:19:02.061Z,97466.13
2022-11-09T05:21:30.318Z,97475.16
2022-11-09T05:24:00.748Z,97479.88
2022-11-09T05:26:33.015Z,97472.34
2022-11-09T05:29:03.323Z,97475.00
2022-11-09T05:31:32.322Z,97473.47
2022-11-09T05:34:01.488Z,97469.16
2022-11-09T05:36:31.634Z,97462.34
2022-11-09T05:39:00.116Z,97479.16
2022-11-09T05:41:30.005Z,97482.91
2022-11-09T05:43:58.235Z,97480.38
2022-11-09T05:46:26.994Z,97480.38
2022-11-09T05:48:55.294Z,97482.03
2022-11-09T05:51:23.538Z,97481.19
2022-11-09T05:53:51.855Z,97480.38
2022-11-09T05:56:20.126Z,97488.97
2022-11-09T05:58:49.754Z,97485.53
2022-11-09T06:01:19.829Z,97480.38
2022-11-09T06:03:48.429Z,97483.16
2022-11-09T06:06:17.976Z,97494.53
2022-11-09T06:08:46.267Z,97499.81
2022-11-09T06:11:22.844Z,97491.22
2022-11-09T06:13:53.927Z,97497.44
2022-11-09T06:16:22.463Z,97501.03
2022-11-09T06:18:50.827Z,97506.31
2022-11-09T06:21:19.632Z,97501.03
2022-11-09T06:23:47.899Z,97501.88
2022-11-09T06:26:16.185Z,97503.69
2022-11-09T06:28:44.616Z,97502.84
2022-11-09T06:31:16.839Z,97509.94
2022-11-09T06:33:45.180Z,97519.50
2022-11-09T06:36:14.083Z,97524.91
2022-11-09T06:38:42.560Z,97520.50
2022-11-09T06:41:11.686Z,97521.44
2022-11-09T06:43:40.082Z,97519.63
2022-11-09T06:46:10.892Z,97527.56
2022-11-09T06:48:41.028Z,97525.75
2022-11-09T06:51:09.308Z,97528.28
2022-11-09T06:53:38.642Z,97530.91
2022-11-09T06:56:08.797Z,97539.38
2022-11-09T06:58:38.029Z,97543.44
2022-11-09T07:01:10.591Z,97550.84
2022-11-09T07:03:41.209Z,97548.47
2022-11-09T07:06:11.787Z,97551.56
2022-11-09T07:08:41.300Z,97548.25
2022-11-09T07:11:13.043Z,97547.72
2022-11-09T07:13:41.488Z,97550.50
2022-11-09T07:16:11.999Z,97551.81
2022-11-09T07:18:41.770Z,97543.34
2022-11-09T07:21:14.020Z,97545.31
2022-11-09T07:23:42.779Z,97545.84
2022-11-09T07:26:11.467Z,97541.16
2022-11-09T07:28:39.849Z,97539.91
2022-11-09T07:31:08.927Z,97556.44
2022-11-09T07:33:37.318Z,97548.25
2022-11-09T07:36:07.976Z,97555.91
2022-11-09T07:38:36.313Z,97552.00
2022-11-09T07:41:04.961Z,97567.59
2022-11-09T07:43:33.324Z,97593.88
2022-11-09T07:46:04.933Z,97623.78
2022-11-09T07:48:33.610Z,97629.75
2022-11-09T07:51:02.684Z,97635.16
2022-11-09T07:53:32.374Z,97613.22
2022-11-09T07:56:04.938Z,97631.56
2022-11-09T07:58:34.283Z,97629.75
2022-11-09T08:01:02.595Z,97628.81
2022-11-09T08:03:30.861Z,97626.84
2022-11-09T08:05:59.321Z,97621.28
2022-11-09T08:08:27.945Z,97637.84
2022-11-09T08:10:59.640Z,97637.84
2022-11-09T08:13:28.093Z,97630.91
2022-11-09T08:15:56.334Z,97621.16
2022-11-09T08:18:24.939Z,97617.16
2022-11-09T08:20:53.333Z,97607.97
2022-11-09T08:23:22.303Z,97607.19
2022-11-09T08:25:51.811Z,97603.56
2022-11-09T08:28:22.019Z,97607.47
2022-11-09T08:30:58.703Z,97602.44
2022-11-09T08:33:28.320Z,97603.56
2022-11-09T08:35:57.233Z,97587.94
2022-11-09T08:38:25.525Z,97601.25
2022-11-09T08:40:59.000Z,97623.78
2022-11-09T08:43:28.834Z,97603.81
2022-11-09T08:45:57.106Z,97605.19
2022-11-09T08:48:25.396Z,97600.25
2022-11-09T08:50:54.985Z,97601.72
2022-11-09T08:53:23.752Z,97597.03
2022-11-09T08:55:52.445Z,97605.66
2022-11-09T08:58:22.622Z,97608.06
2022-11-09T09:00:52.769Z,97620.44
2022-11-09T09:03:21.086Z,97619.38
2022-11-09T09:05:49.435Z,97617.34
2022-11-09T09:08:22.065Z,97609.16
2022-11-09T09:10:50.849Z,97618.88
2022-11-09T09:13:22.679Z,97618.50
2022-11-09T09:15:52.572Z,97618.41
2022-11-09T09:18:21.271Z,97606.72
2022-11-09T09:20:49.987Z,97608.13
2022-11-09T09:23:18.343Z,97615.19
2022-11-09T09:25:46.661Z,97628.03
2022-11-09T09:28:14.892Z,97615.50
2022-11-09T09:30:43.205Z,97615.19
2022-11-09T09:33:13.104Z,97613.78
2022-11-09T09:35:41.354Z,97612.19
2022-11-09T09:38:09.670Z,97613.28
2022-11-09T09:40:44.749Z,97606.34
2022-11-09T09:43:18.979Z,97605.88
2022-11-09T09:45:53.059Z,97612.88
2022-11-09T09:48:34.705Z,97616.91
2022-11-09T09:51:11.291Z,97626.41
2022-11-09T09:53:46.670Z,97622.59
2022-11-09T09:56:22.174Z,97626.09
2022-11-09T09:58:59.068Z,97616.97
2022-11-09T10:01:40.846Z,97622.94
2022-11-09T10:04:19.678Z,97623.94
2022-11-09T10:07:02.030Z,97620.44
2022-11-09T10:09:46.275Z,97618.94
2022-11-09T10:12:24.173Z,97606.66
2022-11-09T10:15:10.912Z,97612.31
2022-11-09T10:17:50.658Z,97604.63
2022-11-09T10:20:42.466Z,97605.13
2022-11-09T10:23:37.254Z,97606.59
2022-11-09T10:26:15.618Z,97606.94
2022-11-09T10:29:14.480Z,97612.41
2022-11-09T10:31:35.665Z,97611.09
2022-11-09T10:34:17.243Z,97610.56
2022-11-09T10:36:54.471Z,97610.75
2022-11-09T10:39:25.941Z,97613.56
2022-11-09T10:41:54.435Z,97608.41
2022-11-09T10:44:22.677Z,97600.09
2022-11-09T10:47:10.256Z,97595.97
2022-11-09T10:49:39.663Z,97588.66
2022-11-09T10:52:33.081Z,97585.97
2022-11-09T10:55:26.530Z,97584.16
2022-11-09T10:58:02.929Z,97586.84
2022-11-09T11:00:32.204Z,97583.16
2022-11-09T11:03:12.596Z,97579.25
2022-11-09T11:05:41.200Z,97576.41
2022-11-09T11:08:40.207Z,97575.31
2022-11-09T11:11:39.436Z,97574.59
2022-11-09T11:14:23.008Z,97568.91
2022-11-09T11:16:53.452Z,97567.69
2022-11-09T11:19:37.512Z,97562.13
2022-11-09T11:22:23.898Z,97553.41
2022-11-09T11:24:58.964Z,97548.84
2022-11-09T11:27:37.913Z,97542.13
2022-11-09T11:30:13.996Z,97549.91
2022-11-09T11:32:47.273Z,97538.69
2022-11-09T11:35:26.097Z,97545.81
2022-11-09T11:38:14.432Z,97534.59
2022-11-09T11:40:52.009Z,97540.59
2022-11-09T11:43:36.993Z,97540.44
2022-11-09T11:46:15.946Z,97546.03
2022-11-09T11:49:15.626Z,97535.53
2022-11-09T11:51:53.271Z,97538.22
2022-11-09T11:54:29.048Z,97529.84
2022-11-09T11:57:09.713Z,97525.16
2022-11-09T11:59:56.094Z,97525.34
2022-11-09T12:03:04.028Z,97529.84
2022-11-09T12:06:01.016Z,97527.81
2022-11-09T12:08:39.421Z,97526.13
2022-11-09T12:11:21.713Z,97519.63
2022-11-09T12:14:09.157Z,97519.25
2022-11-09T12:16:50.533Z,97514.72
2022-11-09T12:19:43.832Z,97510.06
2022-11-09T12:22:19.378Z,97505.22
2022-11-09T12:24:57.722Z,97502.38
2022-11-09T12:27:56.033Z,97496.66
2022-11-09T12:30:34.291Z,97492.59
2022-11-09T12:33:09.836Z,97496.19
2022-11-09T12:35:43.184Z,97491.78
2022-11-09T12:38:19.543Z,97494.53
2022-11-09T12:40:54.287Z,97489.66
2022-11-09T12:43:27.784Z,97489.31
2022-11-09T12:45:59.438Z,97481.09
2022-11-09T12:48:31.001Z,97485.59
2022-11-09T12:51:01.121Z,97485.59
2022-11-09T12:53:33.720Z,97481.28
2022-11-09T12:56:06.975Z,97480.63
2022-11-09T12:58:39.020Z,97480.63
2022-11-09T13:01:13.119Z,97486.81
2022-11-09T13:03:54.319Z,97481.47
2022-11-09T13:06:25.880Z,97490.28
2022-11-09T13:09:01.549Z,97489.50
2022-11-09T13:11:39.407Z,97483.31
2022-11-09T13:14:37.189Z,97485.31
2022-11-09T13:17:54.417Z,97487.19
2022-11-09T13:20:55.145Z,97476.38
2022-11-09T13:23:59.419Z,97478.44
2022-11-09T13:26:41.525Z,97467.75
2022-11-09T13:29:23.295Z,97468.56
2022-11-09T13:32:05.309Z,97468.38
2022-11-09T13:34:47.990Z,97464.69
2022-11-09T13:37:55.524Z,97462.03
2022-11-09T13:40:45.865Z,97458.69
2022-11-09T13:43:27.537Z,97455.38
2022-11-09T13:45:57.945Z,97455.38
2022-11-09T13:48:35.405Z,97446.72
2022-11-09T13:51:07.677Z,97451.06
2022-11-09T13:53:58.322Z,97445.22
2022-11-09T13:56:35.847Z,97445.41
2022-11-09T13:59:13.109Z,97443.13
2022-11-09T14:01:50.455Z,97452.63
2022-11-09T14:04:27.685Z,97459.97
2022-11-09T14:07:05.109Z,97455.66
2022-11-09T14:09:42.813Z,97464.50
2022-11-09T14:12:33.676Z,97461.81
2022-11-09T14:15:26.501Z,97458.53
2022-11-09T14:18:13.731Z,97460.34
2022-11-09T14:20:52.055Z,97458.03
2022-11-09T14:23:24.156Z,97463.19
2022-11-09T14:25:52.459Z,97462.19
2022-11-09T14:28:24.352Z,97469.38
2022-11-09T14:30:52.645Z,97464.84
2022-11-09T14:33:25.919Z,97457.88
2022-11-09T14:35:56.894Z,97465.03
2022-11-09T14:38:30.413Z,97469.56
2022-11-09T14:40:59.680Z,97466.72
2022-11-09T14:43:31.566Z,97462.53
2022-11-09T14:46:02.936Z,97466.25
2022-11-09T14:48:34.124Z,97460.06
2022-11-09T14:51:05.463Z,97456.75
2022-11-09T14:53:37.481Z,97472.78
2022-11-09T14:56:08.810Z,97466.13
2022-11-09T14:58:41.721Z,97477.66
2022-11-09T15:01:26.766Z,97478.69
2022-11-09T15:04:11.586Z,97472.00
2022-11-09T15:06:47.825Z,97475.88
2022-11-09T15:09:21.219Z,97467.19
2022-11-09T15:11:50.721Z,97475.56
2022-11-09T15:14:28.087Z,97469.78
2022-11-09T15:17:06.354Z,97478.34
2022-11-09T15:19:39.018Z,97477.84
2022-11-09T15:22:27.637Z,97479.25
2022-11-09T15:24:57.383Z,97477.09
2022-11-09T15:27:32.717Z,97484.00
2022-11-09T15:30:01.122Z,97487.84
2022-11-09T15:32:34.793Z,97481.38
2022-11-09T15:35:03.353Z,97476.41
2022-11-09T15:37:49.210Z,97481.44
2022-11-09T15:40:21.799Z,97484.47
2022-11-09T15:42:50.294Z,97483.00
2022-11-09T15:45:21.565Z,97491.34
2022-11-09T15:47:53.930Z,97495.22
2022-11-09T15:50:26.613Z,97503.59
2022-11-09T15:52:55.230Z,97496.78
2022-11-09T15:55:25.252Z,97494.63
2022-11-09T15:57:53.637Z,97492.16
2022-11-09T16:00:23.945Z,97489.84
2022-11-09T16:02:52.566Z,97489.34
2022-11-09T16:05:22.609Z,97498.53
2022-11-09T16:07:52.441Z,97504.06
2022-11-09T16:10:23.382Z,97490.41
2022-11-09T16:12:53.297Z,97499.59
2022-11-09T16:15:21.741Z,97507.06
2022-11-09T16:17:51.214Z,97508.09
2022-11-09T16:20:20.677Z,97516.44
2022-11-09T16:22:49.274Z,97523.78
2022-11-09T16:25:18.205Z,97518.78
2022-11-09T16:27:51.284Z,97519.13
2022-11-09T16:30:22.098Z,97516.00
2022-11-09T16:32:50.339Z,97526.84
2022-11-09T16:35:27.685Z,97523.88
2022-11-09T16:37:57.999Z,97527.91
2022-11-09T16:40:28.963Z,97534.38
2022-11-09T16:42:57.361Z,97541.06
2022-11-09T16:45:32.114Z,97547.75
2022-11-09T16:48:05.820Z,97548.28
2022-11-09T16:50:34.112Z,97547.94
2022-11-09T16:53:02.362Z,97556.13
2022-11-09T16:55:30.729Z,97555.78
2022-11-09T16:57:58.969Z,97563.16
2022-11-09T17:00:48.725Z,97554.66
2022-11-09T17:03:17.643Z,97562.34
2022-11-09T17:05:46.154Z,97563.50
2022-11-09T17:08:15.203Z,97559.50
2022-11-09T17:10:45.390Z,97563.34
2022-11-09T17:13:14.993Z,97565.50
2022-11-09T17:15:47.724Z,97570.34
2022-11-09T17:18:16.802Z,97578.66
2022-11-09T17:20:46.289Z,97578.19
2022-11-09T17:23:15.655Z,97587.50
2022-11-09T17:25:43.942Z,97584.19
2022-11-09T17:28:12.170Z,97581.19
2022-11-09T17:30:43.961Z,97592.16
2022-11-09T17:33:12.290Z,97585.50
2022-11-09T17:35:40.624Z,97597.28
2022-11-09T17:38:08.963Z,97589.84
2022-11-09T17:40:37.307Z,97590.97
2022-11-09T17:43:05.793Z,97597.66
2022-11-09T17:45:37.396Z,97598.81
2022-11-09T17:48:08.226Z,97602.63
2022-11-09T17:50:36.443Z,97604.63
2022-11-09T17:53:04.715Z,97616.44
2022-11-09T17:55:33.029Z,97605.13
2022-11-09T17:58:01.659Z,97621.28
2022-11-09T18:00:29.941Z,97616.28
2022-11-09T18:02:58.295Z,97619.09
2022-11-09T18:05:28.028Z,97613.94
2022-11-09T18:07:56.254Z,97617.75
2022-11-09T18:10:24.524Z,97618.75
2022-11-09T18:12:52.784Z,97618.91
2022-11-09T18:15:21.087Z,97622.59
2022-11-09T18:17:49.401Z,97628.06
2022-11-09T18:20:18.629Z,97631.88
2022-11-09T18:22:48.340Z,97626.88
2022-11-09T18:25:16.993Z,97631.53
2022-11-09T18:27:45.451Z,97631.88
2022-11-09T18:30:14.879Z,97632.88
2022-11-09T18:32:43.169Z,97637.34
2022-11-09T18:35:11.458Z,97643.53
2022-11-09T18:37:40.116Z,97644.66
2022-11-09T18:40:11.234Z,97641.34
2022-11-09T18:42:39.512Z,97641.34
2022-11-09T18:45:09.719Z,97649.50
2022-11-09T18:47:37.964Z,97653.13
2022-11-09T18:50:07.849Z,97654.13
2022-11-09T18:52:36.924Z,97648.97
2022-11-09T18:55:06.197Z,97651.78
2022-11-09T18:57:35.932Z,97656.44
2022-11-09T19:00:05.726Z,97655.63
2022-11-09T19:02:35.727Z,97653.28
2022-11-09T19:05:04.090Z,97662.06
2022-11-09T19:07:32.348Z,97662.06
2022-11-09T19:10:00.763Z,97660.41
2022-11-09T19:12:29.601Z,97662.56
2022-11-09T19:14:59.225Z,97662.38
2022-11-09T19:17:27.512Z,97664.25
2022-11-09T19:19:55.765Z,97663.41
2022-11-09T19:22:24.021Z,97667.06
2022-11-09T19:24:52.310Z,97673.19
2022-11-09T19:27:20.661Z,97678.50
2022-11-09T19:29:48.962Z,97677.69
2022-11-09T19:32:18.618Z,97678.66
2022-11-09T19:34:46.882Z,97683.84
2022-11-09T19:37:15.317Z,97691.97
2022-11-09T19:39:47.521Z,97694.78
2022-11-09T19:42:16.137Z,97694.94
2022-11-09T19:44:44.755Z,97700.28
2022-11-09T19:47:13.063Z,97701.28
2022-11-09T19:49:42.783Z,97695.94
2022-11-09T19:52:11.115Z,97701.28
2022-11-09T19:54:39.645Z,97700.44
2022-11-09T19:57:07.949Z,97703.94
2022-11-09T19:59:36.617Z,97709.41
2022-11-09T20:02:05.167Z,97695.44
2022-11-09T20:04:34.149Z,97701.59
2022-11-09T20:07:03.921Z,97712.22
2022-11-09T20:09:33.064Z,97713.06
2022-11-09T20:12:18.661Z,97708.72
2022-11-09T20:14:47.040Z,97714.19
2022-11-09T20:17:15.327Z,97716.88
2022-11-09T20:19:43.691Z,97716.72
2022-11-09T20:22:13.378Z,97713.41
2022-11-09T20:24:41.735Z,97713.41
2022-11-09T20:27:10.066Z,97719.53
2022-11-09T20:29:38.527Z,97714.03
2022-11-09T20:32:09.519Z,97721.69
2022-11-09T20:34:40.411Z,97723.50
2022-11-09T20:37:08.771Z,97716.69
2022-11-09T20:39:40.606Z,97727.47
2022-11-09T20:42:08.971Z,97727.47
2022-11-09T20:44:37.394Z,97736.44
2022-11-09T20:47:06.408Z,97737.28
2022-11-09T20:49:34.735Z,97735.78
2022-11-09T20:52:03.218Z,97736.75
2022-11-09T20:54:31.630Z,97740.25
2022-11-09T20:57:01.519Z,97733.28
2022-11-09T20:59:29.954Z,97744.72
2022-11-09T21:01:58.311Z,97747.38
2022-11-09T21:04:26.666Z,97743.06
2022-11-09T21:06:54.982Z,97748.53
2022-11-09T21:09:23.290Z,97753.84
2022-11-09T21:12:08.915Z,97748.69
2022-11-09T21:14:38.569Z,97755.88
2022-11-09T21:17:06.817Z,97762.97
2022-11-09T21:19:35.081Z,97755.97
2022-11-09T21:22:03.362Z,97767.59
2022-11-09T21:24:49.320Z,97758.81
2022-11-09T21:27:35.094Z,97766.94
2022-11-09T21:30:05.349Z,97768.91
2022-11-09T21:32:33.613Z,97771.56
2022-11-09T21:35:01.958Z,97773.22
2022-11-09T21:37:30.240Z,97776.03
2022-11-09T21:39:58.545Z,97787.50
2022-11-09T21:42:26.942Z,97791.19
2022-11-09T21:44:55.221Z,97786.81
2022-11-09T21:47:26.202Z,97792.13
2022-11-09T21:49:54.446Z,97787.81
2022-11-09T21:52:22.890Z,97783.50
2022-11-09T21:54:51.225Z,97789.78
2022-11-09T21:57:19.524Z,97793.28
2022-11-09T21:59:47.726Z,97789.78
2022-11-09T22:02:16.019Z,97788.97
2022-11-09T22:04:45.649Z,97790.78
2022-11-09T22:07:14.026Z,97796.09
2022-11-09T22:10:08.145Z,97810.41
2022-11-09T22:12:47.389Z,97806.38
2022-11-09T22:15:33.389Z,97809.03
2022-11-09T22:18:01.635Z,97811.84
2022-11-09T22:20:48.539Z,97818.84
2022-11-09T22:23:16.886Z,97818.16
2022-11-09T22:25:47.974Z,97820.81
2022-11-09T22:28:16.404Z,97819.16
2022-11-09T22:30:44.868Z,97826.13
2022-11-09T22:33:13.136Z,97821.13
2022-11-09T22:35:42.731Z,97828.94
2022-11-09T22:38:11.013Z,97835.91
2022-11-09T22:40:39.244Z,97829.78
2022-11-09T22:43:07.496Z,97833.56
2022-11-09T22:45:35.713Z,97841.53
2022-11-09T22:48:03.981Z,97835.41
2022-11-09T22:50:32.315Z,97830.09
2022-11-09T22:53:03.920Z,97833.56
2022-11-09T22:55:32.555Z,97838.06
2022-11-09T22:58:00.799Z,97847.00
2022-11-09T23:00:29.068Z,97852.31
2022-11-09T23:02:58.741Z,97847.00
2022-11-09T23:05:27.062Z,97839.19
2022-11-09T23:07:57.388Z,97839.34
2022-11-09T23:10:27.030Z,97855.13
2022-11-09T23:12:55.307Z,97848.00
2022-11-09T23:15:23.535Z,97850.66
2022-11-09T23:18:12.101Z,97845.34
2022-11-09T23:20:41.238Z,97853.31
2022-11-09T23:23:11.085Z,97853.31
2022-11-09T23:25:56.620Z,97861.13
2022-11-09T23:28:25.578Z,97862.13
2022-11-09T23:30:53.820Z,97860.28
2022-11-09T23:33:22.366Z,97869.13
2022-11-09T23:35:50.782Z,97862.81
2022-11-09T23:38:19.108Z,97867.31
2022-11-09T23:40:48.914Z,97863.78
2022-11-09T23:43:18.001Z,97868.41
2022-11-09T23:45:47.247Z,97864.78
2022-11-09T23:48:17.768Z,97869.25
2022-11-09T23:50:48.095Z,97872.06
2022-11-09T23:53:16.503Z,97871.06
2022-11-09T23:55:45.383Z,97880.91
2022-11-09T23:58:15.049Z,97885.38
